Time;durP1;ratioP1;P1;durP2;ratioP2;P2;SDS_P1;SDS_P2;PMS_P1;PMS_P2;Temp;Humidity;BMP_temperature;BMP_pressure;BME280_temperature;BME280_humidity;BME280_pressure;Samples;Min_cycle;Max_cycle;Signal;HPM_P1;HPM_P2
2023/06/09 00:02:01;;;;;;;20.83;6.25;;;;;;;;;;4870171;28;20051;-70
2023/06/09 00:04:29;;;;;;;15.80;5.70;;;;;;;;;;4869054;28;20695;-69
2023/06/09 00:06:58;;;;;;;17.75;6.38;;;;;;;;;;4869054;28;20056;-71
2023/06/09 00:09:26;;;;;;;19.48;6.30;;;;;;;;;;4870681;28;20095;-68
2023/06/09 00:11:53;;;;;;;17.67;6.40;;;;;;;;;;4870168;28;20700;-69
2023/06/09 00:14:19;;;;;;;20.17;7.22;;;;;;;;;;4870186;28;20041;-70
2023/06/09 00:16:46;;;;;;;18.15;6.60;;;;;;;;;;4869130;28;20064;-69
2023/06/09 00:19:17;;;;;;;18.58;6.90;;;;;;;;;;4870574;28;20123;-68
2023/06/09 00:21:49;;;;;;;19.15;7.22;;;;;;;;;;4869438;28;20040;-69
2023/06/09 00:24:19;;;;;;;14.25;7.15;;;;;;;;;;4868909;28;20048;-70
2023/06/09 00:26:45;;;;;;;19.95;7.28;;;;;;;;;;4870044;28;20064;-70
2023/06/09 00:29:13;;;;;;;18.13;6.93;;;;;;;;;;4884558;28;20037;-69
2023/06/09 00:31:40;;;;;;;18.90;7.03;;;;;;;;;;4871137;28;20111;-69
2023/06/09 00:34:05;;;;;;;16.02;7.00;;;;;;;;;;4883628;28;20044;-70
2023/06/09 00:36:31;;;;;;;19.00;7.47;;;;;;;;;;4871103;28;20068;-68
2023/06/09 00:38:56;;;;;;;21.05;7.28;;;;;;;;;;4868487;28;20041;-70
2023/06/09 00:41:21;;;;;;;18.27;7.40;;;;;;;;;;4878057;28;20708;-70
2023/06/09 00:43:50;;;;;;;19.00;6.70;;;;;;;;;;4865522;28;20152;-70
2023/06/09 00:46:16;;;;;;;18.60;7.82;;;;;;;;;;4867421;28;20041;-71
2023/06/09 00:48:41;;;;;;;20.20;7.40;;;;;;;;;;4866310;28;20194;-67
2023/06/09 00:51:06;;;;;;;18.10;7.50;;;;;;;;;;4866122;28;20052;-69
2023/06/09 00:53:34;;;;;;;15.60;7.25;;;;;;;;;;4866023;28;20075;-70
2023/06/09 00:56:00;;;;;;;22.17;7.75;;;;;;;;;;4866370;28;20048;-71
2023/06/09 00:58:25;;;;;;;20.92;7.75;;;;;;;;;;4866023;28;20045;-71
2023/06/09 01:00:51;;;;;;;15.60;6.95;;;;;;;;;;4866813;28;20044;-71
2023/06/09 01:03:19;;;;;;;23.38;7.32;;;;;;;;;;4878606;28;20041;-70
2023/06/09 01:05:45;;;;;;;16.38;6.90;;;;;;;;;;4865499;28;20110;-69
2023/06/09 01:08:24;;;;;;;15.43;6.85;;;;;;;;;;4867621;28;21013;-70
2023/06/09 01:10:58;;;;;;;15.55;6.78;;;;;;;;;;4865653;28;20036;-69
2023/06/09 01:13:32;;;;;;;20.20;7.15;;;;;;;;;;4865668;28;20124;-70
2023/06/09 01:16:04;;;;;;;15.65;6.80;;;;;;;;;;4865016;28;20057;-70
2023/06/09 01:18:33;;;;;;;16.02;6.85;;;;;;;;;;4868199;28;20044;-68
2023/06/09 01:21:12;;;;;;;18.05;6.55;;;;;;;;;;4863668;28;20154;-68
2023/06/09 01:23:46;;;;;;;17.10;6.50;;;;;;;;;;4865196;28;20076;-69
2023/06/09 01:26:14;;;;;;;22.83;7.82;;;;;;;;;;4864330;28;20060;-69
2023/06/09 01:28:40;;;;;;;18.13;6.70;;;;;;;;;;4865909;28;20481;-70
2023/06/09 01:31:08;;;;;;;14.55;6.45;;;;;;;;;;4866768;28;20099;-69
2023/06/09 01:33:36;;;;;;;18.45;7.03;;;;;;;;;;4865603;28;20402;-70
2023/06/09 01:36:02;;;;;;;18.55;6.78;;;;;;;;;;4864200;28;20033;-69
2023/06/09 01:38:27;;;;;;;22.00;6.68;;;;;;;;;;4867045;28;20033;-68
2023/06/09 01:40:53;;;;;;;22.08;7.80;;;;;;;;;;4865050;28;20153;-69
2023/06/09 01:43:18;;;;;;;18.70;6.63;;;;;;;;;;4866092;28;20041;-69
2023/06/09 01:45:44;;;;;;;16.50;6.93;;;;;;;;;;4864701;28;20139;-70
2023/06/09 01:48:16;;;;;;;18.27;7.05;;;;;;;;;;4864679;28;20041;-69
2023/06/09 01:50:52;;;;;;;16.52;6.70;;;;;;;;;;4866309;28;20045;-69
2023/06/09 01:53:20;;;;;;;18.67;6.78;;;;;;;;;;4865400;28;20192;-69
2023/06/09 01:55:50;;;;;;;15.07;7.13;;;;;;;;;;4864089;28;20049;-69
2023/06/09 01:58:15;;;;;;;17.58;7.63;;;;;;;;;;4863785;28;20040;-69
2023/06/09 02:00:42;;;;;;;16.45;6.45;;;;;;;;;;4866731;28;20623;-70
2023/06/09 02:03:09;;;;;;;16.40;6.47;;;;;;;;;;4865275;28;20896;-70
2023/06/09 02:05:35;;;;;;;17.33;7.50;;;;;;;;;;4865424;28;20053;-70
2023/06/09 02:08:01;;;;;;;17.90;8.07;;;;;;;;;;4862004;28;20052;-70
2023/06/09 02:10:32;;;;;;;19.73;7.00;;;;;;;;;;4866707;28;20046;-71
2023/06/09 02:13:12;;;;;;;19.55;7.35;;;;;;;;;;4864618;28;20040;-70
2023/06/09 02:15:41;;;;;;;21.30;7.25;;;;;;;;;;4865583;28;22471;-71
2023/06/09 02:18:07;;;;;;;17.20;8.15;;;;;;;;;;4865056;28;20204;-71
2023/06/09 02:20:32;;;;;;;18.60;7.95;;;;;;;;;;4866603;28;21054;-69
2023/06/09 02:22:57;;;;;;;23.45;7.93;;;;;;;;;;4865668;28;20032;-69
2023/06/09 02:25:28;;;;;;;18.67;7.70;;;;;;;;;;4863976;28;20041;-69
2023/06/09 02:27:53;;;;;;;18.25;7.93;;;;;;;;;;4864669;28;20052;-69
2023/06/09 02:30:21;;;;;;;21.98;7.72;;;;;;;;;;4925224;28;20768;-70
2023/06/09 02:32:47;;;;;;;19.70;7.90;;;;;;;;;;4879879;28;20036;-72
2023/06/09 02:35:13;;;;;;;23.20;7.60;;;;;;;;;;4866716;28;20754;-69
2023/06/09 02:37:38;;;;;;;25.65;8.35;;;;;;;;;;4865419;28;20037;-69
2023/06/09 02:40:06;;;;;;;18.70;7.65;;;;;;;;;;4864644;28;20044;-69
2023/06/09 02:42:31;;;;;;;22.42;8.27;;;;;;;;;;4861905;28;20029;-70
2023/06/09 02:44:57;;;;;;;20.60;8.48;;;;;;;;;;4879738;28;20095;-70
2023/06/09 02:47:24;;;;;;;21.20;8.32;;;;;;;;;;4864127;28;20056;-70
2023/06/09 02:49:50;;;;;;;23.80;8.40;;;;;;;;;;4864134;28;20072;-70
2023/06/09 02:52:15;;;;;;;20.23;8.70;;;;;;;;;;4864311;28;20116;-70
2023/06/09 02:54:43;;;;;;;18.58;8.70;;;;;;;;;;4864517;28;22427;-70
2023/06/09 02:57:12;;;;;;;20.00;8.68;;;;;;;;;;4865309;28;20036;-70
2023/06/09 02:59:39;;;;;;;22.73;8.95;;;;;;;;;;4865437;28;20506;-68
2023/06/09 03:02:04;;;;;;;24.15;8.70;;;;;;;;;;4862207;28;20510;-70
2023/06/09 03:04:30;;;;;;;20.33;8.63;;;;;;;;;;4864383;28;20045;-70
2023/06/09 03:06:55;;;;;;;24.10;8.93;;;;;;;;;;4864703;28;20049;-70
2023/06/09 03:09:20;;;;;;;20.83;8.98;;;;;;;;;;4864045;28;20068;-69
2023/06/09 03:11:46;;;;;;;18.73;8.80;;;;;;;;;;4863963;28;20095;-70
2023/06/09 03:14:12;;;;;;;23.50;9.15;;;;;;;;;;4862109;28;20041;-70
2023/06/09 03:16:37;;;;;;;24.63;8.73;;;;;;;;;;4865039;28;20051;-71
2023/06/09 03:19:02;;;;;;;22.15;8.85;;;;;;;;;;4864621;28;20040;-70
2023/06/09 03:21:27;;;;;;;23.08;8.88;;;;;;;;;;4863604;28;20079;-70
2023/06/09 03:23:53;;;;;;;22.13;9.30;;;;;;;;;;4925970;28;20177;-70
2023/06/09 03:26:18;;;;;;;18.98;8.80;;;;;;;;;;4878610;28;20049;-70
2023/06/09 03:28:43;;;;;;;19.17;9.02;;;;;;;;;;4864841;28;20474;-70
2023/06/09 03:31:09;;;;;;;24.70;9.80;;;;;;;;;;4863976;28;20044;-68
2023/06/09 03:33:34;;;;;;;22.23;9.32;;;;;;;;;;4864985;28;20045;-72
2023/06/09 03:35:59;;;;;;;22.02;9.02;;;;;;;;;;4860909;28;20037;-68
2023/06/09 03:38:25;;;;;;;19.88;9.63;;;;;;;;;;4863667;28;20037;-69
2023/06/09 03:40:50;;;;;;;23.38;9.25;;;;;;;;;;4863250;28;20067;-68
2023/06/09 03:43:15;;;;;;;24.70;8.93;;;;;;;;;;4863826;28;20573;-67
2023/06/09 03:45:43;;;;;;;18.33;9.30;;;;;;;;;;4862238;28;20053;-69
2023/06/09 03:48:08;;;;;;;22.48;9.18;;;;;;;;;;4878910;28;20382;-69
2023/06/09 03:50:33;;;;;;;23.05;9.35;;;;;;;;;;4864308;28;20087;-70
2023/06/09 03:52:58;;;;;;;22.38;9.50;;;;;;;;;;4861808;28;20033;-70
2023/06/09 03:55:25;;;;;;;21.30;9.95;;;;;;;;;;4861146;28;20159;-69
2023/06/09 03:57:50;;;;;;;22.75;9.68;;;;;;;;;;4877812;28;20575;-70
2023/06/09 04:00:16;;;;;;;26.50;8.98;;;;;;;;;;4864353;28;20037;-69
2023/06/09 04:02:42;;;;;;;21.23;9.82;;;;;;;;;;4863426;28;20051;-69
2023/06/09 04:05:07;;;;;;;19.20;8.95;;;;;;;;;;4863518;28;21099;-69
2023/06/09 04:07:33;;;;;;;21.67;9.38;;;;;;;;;;4863369;28;20056;-69
2023/06/09 04:09:59;;;;;;;22.85;9.38;;;;;;;;;;4862483;28;20045;-68
2023/06/09 04:12:24;;;;;;;20.98;8.90;;;;;;;;;;4863250;28;20045;-70
2023/06/09 04:14:50;;;;;;;22.15;8.93;;;;;;;;;;4864354;28;20072;-69
2023/06/09 04:17:15;;;;;;;22.60;8.82;;;;;;;;;;4866685;28;20040;-69
2023/06/09 04:19:41;;;;;;;23.30;9.20;;;;;;;;;;4866355;28;20033;-68
2023/06/09 04:22:10;;;;;;;17.55;8.85;;;;;;;;;;4868646;28;20040;-68
2023/06/09 04:24:35;;;;;;;21.23;9.20;;;;;;;;;;4863391;28;20040;-69
2023/06/09 04:27:03;;;;;;;21.08;8.45;;;;;;;;;;4878967;28;20504;-68
2023/06/09 04:29:28;;;;;;;24.95;8.52;;;;;;;;;;4865015;28;20472;-69
2023/06/09 04:31:58;;;;;;;17.95;8.45;;;;;;;;;;4931763;28;20033;-69
2023/06/09 04:34:25;;;;;;;21.40;8.07;;;;;;;;;;4865111;28;20785;-68
2023/06/09 04:36:53;;;;;;;18.08;8.35;;;;;;;;;;4867703;28;20900;-69
2023/06/09 04:39:20;;;;;;;19.13;7.85;;;;;;;;;;4865608;28;20083;-69
2023/06/09 04:41:47;;;;;;;19.98;7.78;;;;;;;;;;4867231;28;20036;-69
2023/06/09 04:44:13;;;;;;;22.85;8.38;;;;;;;;;;4864875;28;20340;-68
2023/06/09 04:46:39;;;;;;;22.50;9.45;;;;;;;;;;4866401;28;20033;-69
2023/06/09 04:49:10;;;;;;;18.45;8.38;;;;;;;;;;4865939;28;20084;-70
2023/06/09 04:51:46;;;;;;;19.13;8.15;;;;;;;;;;4866143;28;20620;-70
2023/06/09 04:54:11;;;;;;;18.13;8.40;;;;;;;;;;4867100;28;20036;-69
2023/06/09 04:56:40;;;;;;;21.02;7.93;;;;;;;;;;4865598;28;20334;-68
2023/06/09 04:59:06;;;;;;;23.40;8.90;;;;;;;;;;4862929;28;20037;-69
2023/06/09 05:01:33;;;;;;;20.40;8.23;;;;;;;;;;4865986;28;20037;-69
2023/06/09 05:04:00;;;;;;;20.00;8.45;;;;;;;;;;4865674;28;20036;-70
2023/06/09 05:06:25;;;;;;;20.35;8.13;;;;;;;;;;4865090;28;20507;-70
2023/06/09 05:08:51;;;;;;;15.82;7.63;;;;;;;;;;4866947;28;20084;-70
2023/06/09 05:11:16;;;;;;;20.23;8.40;;;;;;;;;;4865983;28;20083;-68
2023/06/09 05:13:41;;;;;;;23.52;8.70;;;;;;;;;;4867613;28;20124;-69
2023/06/09 05:16:07;;;;;;;20.13;7.30;;;;;;;;;;4877644;28;20052;-66
2023/06/09 05:18:35;;;;;;;18.38;7.57;;;;;;;;;;4863798;28;20051;-67
2023/06/09 05:21:03;;;;;;;22.00;7.68;;;;;;;;;;4865915;28;20296;-65
2023/06/09 05:23:28;;;;;;;16.60;7.38;;;;;;;;;;4863653;28;20692;-66
2023/06/09 05:25:53;;;;;;;17.45;6.40;;;;;;;;;;4865445;28;20048;-67
2023/06/09 05:28:18;;;;;;;18.13;6.82;;;;;;;;;;4861428;28;20087;-66
2023/06/09 05:30:46;;;;;;;14.73;6.43;;;;;;;;;;4860690;28;20067;-66
2023/06/09 05:33:11;;;;;;;14.85;6.43;;;;;;;;;;4864238;28;20051;-66
2023/06/09 05:35:37;;;;;;;14.52;6.38;;;;;;;;;;4861044;28;20044;-66
2023/06/09 05:38:02;;;;;;;15.55;7.07;;;;;;;;;;4862143;28;20156;-68
2023/06/09 05:40:27;;;;;;;19.80;8.23;;;;;;;;;;4861178;28;20090;-67
2023/06/09 05:42:53;;;;;;;17.20;7.20;;;;;;;;;;4860294;28;20100;-66
2023/06/09 05:45:18;;;;;;;19.70;7.30;;;;;;;;;;4862396;28;20045;-66
2023/06/09 05:47:46;;;;;;;14.75;6.85;;;;;;;;;;4861787;28;20075;-66
2023/06/09 05:50:11;;;;;;;14.73;6.55;;;;;;;;;;4863433;28;20497;-66
2023/06/09 05:52:36;;;;;;;13.52;6.47;;;;;;;;;;4879396;28;20037;-66
2023/06/09 05:55:02;;;;;;;13.00;6.40;;;;;;;;;;4865248;28;20037;-66
2023/06/09 05:57:29;;;;;;;14.13;6.68;;;;;;;;;;4862225;28;20197;-66
2023/06/09 05:59:56;;;;;;;15.65;6.95;;;;;;;;;;4865213;28;20061;-67
2023/06/09 06:02:21;;;;;;;18.17;7.53;;;;;;;;;;4859305;28;20130;-66
2023/06/09 06:04:49;;;;;;;12.95;6.93;;;;;;;;;;4867154;28;20044;-68
2023/06/09 06:07:15;;;;;;;15.57;6.72;;;;;;;;;;4865073;28;20057;-67
2023/06/09 06:09:40;;;;;;;16.52;6.75;;;;;;;;;;4862298;28;20054;-67
2023/06/09 06:12:08;;;;;;;14.00;6.03;;;;;;;;;;4862924;28;20041;-66
2023/06/09 06:14:35;;;;;;;15.07;6.47;;;;;;;;;;4863036;28;20044;-68
2023/06/09 06:17:01;;;;;;;13.98;6.47;;;;;;;;;;4865692;28;20043;-66
2023/06/09 06:19:26;;;;;;;14.85;6.15;;;;;;;;;;4864743;28;20040;-68
2023/06/09 06:21:51;;;;;;;15.45;6.53;;;;;;;;;;4863965;28;20040;-67
2023/06/09 06:24:17;;;;;;;13.95;6.72;;;;;;;;;;4863702;28;20154;-68
2023/06/09 06:26:45;;;;;;;17.92;6.68;;;;;;;;;;4876134;28;20048;-68
2023/06/09 06:29:10;;;;;;;13.68;6.65;;;;;;;;;;4863815;28;20144;-66
2023/06/09 06:31:35;;;;;;;17.50;6.65;;;;;;;;;;4865629;28;20040;-67
2023/06/09 06:34:03;;;;;;;17.88;6.85;;;;;;;;;;4864619;28;20114;-65
2023/06/09 06:36:31;;;;;;;13.15;6.00;;;;;;;;;;4865418;28;20044;-69
2023/06/09 06:38:56;;;;;;;15.77;5.95;;;;;;;;;;4863678;28;20036;-67
2023/06/09 06:41:22;;;;;;;31.98;9.13;;;;;;;;;;4863744;28;20052;-66
2023/06/09 06:43:50;;;;;;;21.80;7.72;;;;;;;;;;4865160;28;20482;-66
2023/06/09 06:46:17;;;;;;;19.50;7.47;;;;;;;;;;4863932;28;20593;-66
2023/06/09 06:48:42;;;;;;;15.15;6.70;;;;;;;;;;4865705;28;20498;-67
2023/06/09 06:51:08;;;;;;;16.90;7.22;;;;;;;;;;4863750;28;20048;-67
2023/06/09 06:53:33;;;;;;;12.77;6.68;;;;;;;;;;4879860;28;20060;-66
2023/06/09 06:55:59;;;;;;;20.23;6.95;;;;;;;;;;4864419;28;20747;-66
2023/06/09 06:58:28;;;;;;;34.95;9.15;;;;;;;;;;4865123;28;20152;-67
2023/06/09 07:00:56;;;;;;;41.30;10.93;;;;;;;;;;4864678;28;20045;-66
2023/06/09 07:03:25;;;;;;;32.70;10.20;;;;;;;;;;4864232;28;20047;-67
2023/06/09 07:05:50;;;;;;;20.40;7.50;;;;;;;;;;4865513;28;20238;-67
2023/06/09 07:08:16;;;;;;;17.27;6.68;;;;;;;;;;4879416;28;20589;-66
2023/06/09 07:10:41;;;;;;;14.98;6.45;;;;;;;;;;4864658;28;20093;-67
2023/06/09 07:13:06;;;;;;;33.58;9.15;;;;;;;;;;4878573;28;20045;-66
2023/06/09 07:15:32;;;;;;;29.30;8.50;;;;;;;;;;4864294;29;20040;-67
2023/06/09 07:17:57;;;;;;;16.88;6.88;;;;;;;;;;4879124;28;20037;-67
2023/06/09 07:20:22;;;;;;;16.13;6.60;;;;;;;;;;4863640;28;20041;-68
2023/06/09 07:22:51;;;;;;;16.25;7.43;;;;;;;;;;4864995;28;20102;-67
2023/06/09 07:25:16;;;;;;;15.30;6.82;;;;;;;;;;4865697;28;20107;-71
2023/06/09 07:27:42;;;;;;;15.93;6.45;;;;;;;;;;4862879;28;20131;-69
2023/06/09 07:30:07;;;;;;;12.98;5.88;;;;;;;;;;4863128;28;20762;-69
2023/06/09 07:32:33;;;;;;;14.05;6.00;;;;;;;;;;4862285;29;20085;-70
2023/06/09 07:34:59;;;;;;;15.63;6.25;;;;;;;;;;4864946;28;20929;-72
2023/06/09 07:37:25;;;;;;;12.00;6.25;;;;;;;;;;4864150;28;20047;-72
2023/06/09 07:39:52;;;;;;;14.57;6.82;;;;;;;;;;4864676;28;20930;-71
2023/06/09 07:42:17;;;;;;;13.90;6.45;;;;;;;;;;4864822;28;20140;-72
2023/06/09 07:44:45;;;;;;;15.10;6.35;;;;;;;;;;4863529;29;20066;-72
2023/06/09 07:47:13;;;;;;;16.23;7.05;;;;;;;;;;4863827;28;20776;-71
2023/06/09 07:49:40;;;;;;;16.50;7.30;;;;;;;;;;4863762;28;20044;-71
2023/06/09 07:52:06;;;;;;;16.15;7.10;;;;;;;;;;4867289;28;22154;-72
2023/06/09 07:54:31;;;;;;;17.90;7.15;;;;;;;;;;4867386;28;20044;-72
2023/06/09 07:56:56;;;;;;;18.88;7.07;;;;;;;;;;4882882;28;20082;-72
2023/06/09 07:59:22;;;;;;;12.02;5.97;;;;;;;;;;4865603;28;20041;-70
2023/06/09 08:01:49;;;;;;;12.18;6.43;;;;;;;;;;4867867;28;20060;-71
2023/06/09 08:04:15;;;;;;;12.45;6.45;;;;;;;;;;4866355;28;20131;-72
2023/06/09 08:06:41;;;;;;;15.25;7.20;;;;;;;;;;4868087;28;20051;-70
2023/06/09 08:09:06;;;;;;;14.65;7.22;;;;;;;;;;4866573;28;20067;-70
2023/06/09 08:11:32;;;;;;;15.02;6.82;;;;;;;;;;4866063;28;20151;-70
2023/06/09 08:14:00;;;;;;;18.23;6.70;;;;;;;;;;4867280;28;20052;-68
2023/06/09 08:16:25;;;;;;;15.65;6.47;;;;;;;;;;4866694;28;20045;-69
2023/06/09 08:18:50;;;;;;;21.30;7.65;;;;;;;;;;4865639;28;20851;-69
2023/06/09 08:21:17;;;;;;;23.05;6.95;;;;;;;;;;4882667;28;20048;-69
2023/06/09 08:23:43;;;;;;;16.98;7.30;;;;;;;;;;4881813;28;20047;-68
2023/06/09 08:26:09;;;;;;;15.65;7.45;;;;;;;;;;4866435;28;20177;-70
2023/06/09 08:28:38;;;;;;;14.10;6.85;;;;;;;;;;4866630;28;20036;-69
2023/06/09 08:31:05;;;;;;;15.18;6.90;;;;;;;;;;4865794;28;20041;-68
2023/06/09 08:33:34;;;;;;;16.30;6.60;;;;;;;;;;4868406;28;20068;-69
2023/06/09 08:36:03;;;;;;;15.40;6.38;;;;;;;;;;4866962;28;20040;-69
2023/06/09 08:38:30;;;;;;;14.73;6.55;;;;;;;;;;4867744;28;20049;-68
2023/06/09 08:40:56;;;;;;;12.18;6.30;;;;;;;;;;4866909;28;20181;-69
2023/06/09 08:43:25;;;;;;;13.18;5.90;;;;;;;;;;4867856;28;20159;-69
2023/06/09 08:45:51;;;;;;;12.45;6.90;;;;;;;;;;4865740;28;20040;-68
2023/06/09 08:48:18;;;;;;;16.80;7.50;;;;;;;;;;4865945;28;20608;-69
2023/06/09 08:50:43;;;;;;;23.30;7.60;;;;;;;;;;4878905;28;20072;-68
2023/06/09 08:53:11;;;;;;;26.55;8.32;;;;;;;;;;4865640;28;20041;-69
2023/06/09 08:55:37;;;;;;;13.38;6.57;;;;;;;;;;4862853;28;20053;-68
2023/06/09 08:58:05;;;;;;;17.45;7.05;;;;;;;;;;4863201;28;20119;-68
2023/06/09 09:00:30;;;;;;;14.23;7.35;;;;;;;;;;4865261;28;21115;-69
2023/06/09 09:02:58;;;;;;;24.08;7.88;;;;;;;;;;4864999;28;20045;-68
2023/06/09 09:05:23;;;;;;;14.98;7.05;;;;;;;;;;4864212;28;22292;-70
2023/06/09 09:07:49;;;;;;;27.27;8.77;;;;;;;;;;4862121;28;20052;-70
2023/06/09 09:10:15;;;;;;;16.42;7.95;;;;;;;;;;4862319;28;20163;-69
2023/06/09 09:12:47;;;;;;;14.40;7.28;;;;;;;;;;4863459;28;20043;-68
2023/06/09 09:15:15;;;;;;;13.98;7.55;;;;;;;;;;4862059;28;20039;-68
2023/06/09 09:17:46;;;;;;;17.40;7.38;;;;;;;;;;4879871;28;21266;-69
2023/06/09 09:20:15;;;;;;;16.13;6.82;;;;;;;;;;4860712;28;20037;-69
2023/06/09 09:22:49;;;;;;;15.43;7.53;;;;;;;;;;4862870;28;20931;-69
2023/06/09 09:25:25;;;;;;;14.98;6.60;;;;;;;;;;4844716;28;20052;-70
2023/06/09 09:28:00;;;;;;;16.73;6.97;;;;;;;;;;4863759;28;20083;-69
2023/06/09 09:30:46;;;;;;;13.82;7.90;;;;;;;;;;4864965;28;20045;-69
2023/06/09 09:33:12;;;;;;;14.32;6.68;;;;;;;;;;4863810;28;20557;-69
2023/06/09 09:35:42;;;;;;;14.93;6.90;;;;;;;;;;4860302;28;20235;-69
2023/06/09 09:38:12;;;;;;;14.82;7.53;;;;;;;;;;4860109;28;20062;-69
2023/06/09 09:40:44;;;;;;;18.75;7.22;;;;;;;;;;4875209;28;20084;-71
2023/06/09 09:43:15;;;;;;;19.05;7.95;;;;;;;;;;4861801;28;20052;-69
2023/06/09 09:45:50;;;;;;;15.50;7.88;;;;;;;;;;4844691;28;20563;-70
2023/06/09 09:48:21;;;;;;;22.42;7.45;;;;;;;;;;4862390;28;20052;-69
2023/06/09 09:50:47;;;;;;;15.50;6.88;;;;;;;;;;4861385;28;20044;-70
2023/06/09 09:53:13;;;;;;;17.80;7.45;;;;;;;;;;4863530;28;20093;-71
2023/06/09 09:55:41;;;;;;;13.20;7.45;;;;;;;;;;4862603;28;20037;-69
2023/06/09 09:58:07;;;;;;;15.57;7.32;;;;;;;;;;4860819;28;20263;-70
2023/06/09 10:00:36;;;;;;;21.20;7.97;;;;;;;;;;4861667;28;20582;-70
2023/06/09 10:03:08;;;;;;;17.80;7.90;;;;;;;;;;4859162;28;20075;-68
2023/06/09 10:05:35;;;;;;;16.15;7.13;;;;;;;;;;4923654;28;20134;-68
2023/06/09 10:08:02;;;;;;;16.25;7.20;;;;;;;;;;4864562;28;20075;-70
2023/06/09 10:10:28;;;;;;;18.27;7.63;;;;;;;;;;4864046;28;20048;-67
2023/06/09 10:12:55;;;;;;;16.02;6.82;;;;;;;;;;4864318;28;20044;-68
2023/06/09 10:15:22;;;;;;;17.65;8.02;;;;;;;;;;4879903;28;20959;-70
2023/06/09 10:17:48;;;;;;;27.92;9.77;;;;;;;;;;4864634;28;20044;-68
2023/06/09 10:20:14;;;;;;;17.70;7.78;;;;;;;;;;4861560;28;20488;-69
2023/06/09 10:22:40;;;;;;;12.63;7.30;;;;;;;;;;4865899;28;20047;-69
2023/06/09 10:25:06;;;;;;;13.63;7.20;;;;;;;;;;4863081;28;20040;-68
2023/06/09 10:27:31;;;;;;;15.07;7.45;;;;;;;;;;4865531;28;20052;-68
2023/06/09 10:29:57;;;;;;;14.07;7.65;;;;;;;;;;4864598;28;20989;-68
2023/06/09 10:32:29;;;;;;;16.38;7.88;;;;;;;;;;4860096;28;20119;-68
2023/06/09 10:34:56;;;;;;;12.43;7.55;;;;;;;;;;4861005;28;20714;-68
2023/06/09 10:37:31;;;;;;;13.02;7.55;;;;;;;;;;4874525;28;20137;-69
2023/06/09 10:40:15;;;;;;;12.82;7.68;;;;;;;;;;4860439;28;21008;-70
2023/06/09 10:42:46;;;;;;;14.75;8.20;;;;;;;;;;4861515;28;20406;-69
2023/06/09 10:45:20;;;;;;;11.98;7.85;;;;;;;;;;4859652;28;20068;-70
2023/06/09 10:47:46;;;;;;;12.90;7.32;;;;;;;;;;4863819;28;20052;-69
2023/06/09 10:50:21;;;;;;;17.00;8.43;;;;;;;;;;4863806;28;20056;-69
2023/06/09 10:52:47;;;;;;;12.15;7.38;;;;;;;;;;4864308;28;22494;-70
2023/06/09 10:55:15;;;;;;;11.80;7.85;;;;;;;;;;4862569;28;20075;-72
2023/06/09 10:57:41;;;;;;;11.63;6.85;;;;;;;;;;4863012;28;20040;-63
2023/06/09 11:00:11;;;;;;;14.07;7.47;;;;;;;;;;4861801;28;20050;-72
2023/06/09 11:02:37;;;;;;;15.38;7.78;;;;;;;;;;4860007;28;20041;-71
2023/06/09 11:05:05;;;;;;;17.20;7.13;;;;;;;;;;4862341;28;20056;-71
2023/06/09 11:07:53;;;;;;;14.05;7.85;;;;;;;;;;4860176;28;20126;-69
2023/06/09 11:10:18;;;;;;;13.50;7.57;;;;;;;;;;4860907;28;20060;-69
2023/06/09 11:12:47;;;;;;;13.45;7.25;;;;;;;;;;4861039;28;20048;-70
2023/06/09 11:15:15;;;;;;;12.23;7.60;;;;;;;;;;4862003;28;20044;-69
2023/06/09 11:17:44;;;;;;;13.32;7.55;;;;;;;;;;4862626;28;20654;-68
2023/06/09 11:20:09;;;;;;;16.58;8.10;;;;;;;;;;4863395;28;20098;-69
2023/06/09 11:22:41;;;;;;;14.75;7.57;;;;;;;;;;4924890;28;20253;-70
2023/06/09 11:25:07;;;;;;;15.40;7.28;;;;;;;;;;4861242;28;20049;-73
2023/06/09 11:27:35;;;;;;;13.18;8.07;;;;;;;;;;4860071;28;22145;-71
2023/06/09 11:30:16;;;;;;;13.75;7.20;;;;;;;;;;4859306;28;20076;-70
2023/06/09 11:33:00;;;;;;;15.15;8.43;;;;;;;;;;4863241;28;20061;-73
2023/06/09 11:35:29;;;;;;;13.10;7.28;;;;;;;;;;4860794;28;20067;-71
2023/06/09 11:38:01;;;;;;;12.75;7.85;;;;;;;;;;4874882;28;20037;-71
2023/06/09 11:40:27;;;;;;;11.52;6.78;;;;;;;;;;4861553;28;20042;-70
2023/06/09 11:42:54;;;;;;;13.73;7.43;;;;;;;;;;4863419;28;20060;-68
2023/06/09 11:45:22;;;;;;;13.55;7.85;;;;;;;;;;4859645;28;20505;-72
2023/06/09 11:47:48;;;;;;;11.05;6.72;;;;;;;;;;4861016;28;20055;-72
2023/06/09 11:50:14;;;;;;;13.65;7.65;;;;;;;;;;4861606;28;20036;-71
2023/06/09 11:52:42;;;;;;;11.23;6.28;;;;;;;;;;4862222;28;20067;-70
2023/06/09 11:55:09;;;;;;;15.15;7.50;;;;;;;;;;4875103;28;25170;-71
2023/06/09 11:57:35;;;;;;;14.30;7.60;;;;;;;;;;4862243;28;20045;-71
2023/06/09 12:00:12;;;;;;;13.90;7.68;;;;;;;;;;4860304;28;20559;-69
2023/06/09 12:02:37;;;;;;;11.82;7.00;;;;;;;;;;4876431;28;20104;-72
2023/06/09 12:05:06;;;;;;;11.82;6.72;;;;;;;;;;4859223;28;20769;-71
2023/06/09 12:07:34;;;;;;;9.93;7.00;;;;;;;;;;4862870;28;20052;-71
2023/06/09 12:10:03;;;;;;;13.52;6.85;;;;;;;;;;4860572;28;20152;-71
2023/06/09 12:12:28;;;;;;;13.18;7.47;;;;;;;;;;4860112;28;20041;-70
2023/06/09 12:14:53;;;;;;;13.85;6.43;;;;;;;;;;4862261;28;20041;-72
2023/06/09 12:17:19;;;;;;;12.35;6.20;;;;;;;;;;4862473;28;20087;-72
2023/06/09 12:19:48;;;;;;;9.10;6.35;;;;;;;;;;4860057;28;20049;-68
2023/06/09 12:22:13;;;;;;;10.23;7.15;;;;;;;;;;4861100;28;20064;-69
2023/06/09 12:24:39;;;;;;;13.82;6.90;;;;;;;;;;4875555;28;20699;-69
2023/06/09 12:27:13;;;;;;;13.55;6.97;;;;;;;;;;4861269;28;20051;-68
2023/06/09 12:29:39;;;;;;;12.45;6.18;;;;;;;;;;4859756;28;20083;-69
2023/06/09 12:32:09;;;;;;;12.00;5.90;;;;;;;;;;4858117;28;20065;-69
2023/06/09 12:34:34;;;;;;;10.57;6.25;;;;;;;;;;4859811;28;20041;-69
2023/06/09 12:37:03;;;;;;;12.88;6.22;;;;;;;;;;4862753;28;20127;-69
2023/06/09 12:39:34;;;;;;;14.10;6.28;;;;;;;;;;4863004;28;20045;-69
2023/06/09 12:42:09;;;;;;;12.20;6.00;;;;;;;;;;4864395;28;20052;-67
2023/06/09 12:44:35;;;;;;;10.15;5.72;;;;;;;;;;4865026;28;20048;-68
2023/06/09 12:47:00;;;;;;;11.60;6.03;;;;;;;;;;4864726;28;20494;-68
2023/06/09 12:49:29;;;;;;;14.68;6.20;;;;;;;;;;4847842;28;20525;-69
2023/06/09 12:51:56;;;;;;;10.45;5.60;;;;;;;;;;4862661;28;20781;-69
2023/06/09 12:54:22;;;;;;;10.40;6.15;;;;;;;;;;4864252;28;20037;-68
2023/06/09 12:56:47;;;;;;;9.10;5.60;;;;;;;;;;4863818;28;20048;-68
2023/06/09 12:59:12;;;;;;;8.25;5.70;;;;;;;;;;4863601;28;20087;-68
2023/06/09 13:01:39;;;;;;;11.52;5.47;;;;;;;;;;4863311;28;20797;-68
2023/06/09 13:04:04;;;;;;;11.48;5.28;;;;;;;;;;4863002;28;20051;-67
2023/06/09 13:06:30;;;;;;;9.57;5.72;;;;;;;;;;4862933;28;20053;-68
2023/06/09 13:08:55;;;;;;;11.15;5.22;;;;;;;;;;4876998;28;20040;-67
2023/06/09 13:11:21;;;;;;;9.68;5.32;;;;;;;;;;4860148;28;20130;-68
2023/06/09 13:13:46;;;;;;;11.55;5.28;;;;;;;;;;4861568;28;20041;-69
2023/06/09 13:16:14;;;;;;;10.48;5.28;;;;;;;;;;4862496;28;20099;-68
2023/06/09 13:18:39;;;;;;;11.32;5.05;;;;;;;;;;4861440;28;20553;-69
2023/06/09 13:21:05;;;;;;;11.85;5.63;;;;;;;;;;4862036;28;20122;-68
2023/06/09 13:23:32;;;;;;;9.95;5.22;;;;;;;;;;4863025;29;20047;-68
2023/06/09 13:25:57;;;;;;;20.70;7.07;;;;;;;;;;4862769;28;20044;-66
2023/06/09 13:28:23;;;;;;;16.40;6.03;;;;;;;;;;4863205;28;20033;-68
2023/06/09 13:30:48;;;;;;;10.88;5.22;;;;;;;;;;4861199;28;20489;-68
2023/06/09 13:33:16;;;;;;;10.65;5.43;;;;;;;;;;4862648;28;20039;-68
2023/06/09 13:35:42;;;;;;;13.27;5.57;;;;;;;;;;4861510;28;20029;-68
2023/06/09 13:38:08;;;;;;;8.70;5.35;;;;;;;;;;4861918;28;20039;-68
2023/06/09 13:40:33;;;;;;;9.27;5.70;;;;;;;;;;4863193;28;20083;-67
2023/06/09 13:43:02;;;;;;;8.40;5.47;;;;;;;;;;4860592;28;20110;-68
2023/06/09 13:45:27;;;;;;;8.20;5.10;;;;;;;;;;4862924;28;20044;-69
2023/06/09 13:47:58;;;;;;;10.48;4.90;;;;;;;;;;4860625;28;20147;-68
2023/06/09 13:50:23;;;;;;;9.30;5.00;;;;;;;;;;4861875;28;20048;-66
2023/06/09 13:52:50;;;;;;;8.60;4.90;;;;;;;;;;4863855;28;20098;-67
2023/06/09 13:55:16;;;;;;;7.68;5.28;;;;;;;;;;4862349;28;20041;-70
2023/06/09 13:57:44;;;;;;;7.35;5.15;;;;;;;;;;4863677;28;20044;-68
2023/06/09 14:00:49;;;;;;;;;;;;;;;;;;;;;
2023/06/09 14:03:35;;;;;;;8.82;4.97;;;;;;;;;;4858173;28;20067;-68
2023/06/09 14:06:03;;;;;;;9.48;4.80;;;;;;;;;;4877364;28;20106;-67
2023/06/09 14:08:29;;;;;;;8.50;4.75;;;;;;;;;;4862534;28;20189;-67
2023/06/09 14:10:55;;;;;;;9.60;4.78;;;;;;;;;;4876599;28;20037;-67
2023/06/09 14:13:22;;;;;;;11.10;5.18;;;;;;;;;;4863865;28;20033;-66
2023/06/09 14:15:47;;;;;;;9.02;5.15;;;;;;;;;;4863652;28;20032;-69
2023/06/09 14:18:13;;;;;;;8.07;5.35;;;;;;;;;;4862306;28;20044;-68
2023/06/09 14:20:39;;;;;;;11.45;5.45;;;;;;;;;;4862144;28;20049;-69
2023/06/09 14:23:08;;;;;;;7.20;5.15;;;;;;;;;;4860054;28;20059;-69
2023/06/09 14:25:36;;;;;;;9.63;4.65;;;;;;;;;;4862376;28;20168;-69
2023/06/09 14:28:01;;;;;;;7.82;4.95;;;;;;;;;;4861958;28;20048;-69
2023/06/09 14:30:27;;;;;;;6.95;4.90;;;;;;;;;;4861961;28;20058;-67
2023/06/09 14:32:55;;;;;;;9.70;5.32;;;;;;;;;;4862058;28;20404;-68